Time;durP1;ratioP1;P1;durP2;ratioP2;P2;SDS_P1;SDS_P2;PMS_P1;PMS_P2;Temp;Humidity;BMP_temperature;BMP_pressure;BME280_temperature;BME280_humidity;BME280_pressure;Samples;Min_cycle;Max_cycle;Signal;HPM_P1;HPM_P2
2023/02/15 00:00:12;;;;;;;40.75;20.67;;;;;;;1.04;100.00;102934.22;2616113;36;20621;-52
2023/02/15 00:02:41;;;;;;;43.17;20.95;;;;;;;0.99;100.00;102930.78;2616646;36;20085;-52
2023/02/15 00:05:11;;;;;;;42.78;21.10;;;;;;;0.85;100.00;102933.66;2616161;36;20053;-50
2023/02/15 00:07:39;;;;;;;39.15;21.25;;;;;;;0.87;100.00;102925.66;2615489;36;20026;-53
2023/02/15 00:10:09;;;;;;;42.78;20.70;;;;;;;0.82;100.00;102928.34;2615740;36;20034;-55
2023/02/15 00:12:37;;;;;;;41.70;21.23;;;;;;;0.85;100.00;102928.34;2616634;36;20058;-55
2023/02/15 00:15:09;;;;;;;40.03;21.08;;;;;;;0.81;100.00;102931.94;2616492;36;20039;-53
2023/02/15 00:17:37;;;;;;;41.10;20.85;;;;;;;0.85;100.00;102924.78;2616408;36;20054;-55
2023/02/15 00:20:07;;;;;;;47.25;23.35;;;;;;;0.90;100.00;102922.06;2615394;31;20045;-56
2023/02/15 00:22:35;;;;;;;;;;;;;;;0.89;100.00;102913.25;2616746;31;20062;-54
2023/02/15 00:25:03;;;;;;;48.72;25.35;;;;;;;0.80;100.00;102919.56;2615178;36;19960;-54
2023/02/15 00:27:31;;;;;;;52.93;26.23;;;;;;;0.72;100.00;102916.13;2616211;36;20029;-57
2023/02/15 00:30:00;;;;;;;46.80;24.95;;;;;;;0.70;100.00;102912.63;2615621;36;20300;-55
2023/02/15 00:32:31;;;;;;;49.97;24.92;;;;;;;0.66;100.00;102909.16;2616224;36;20046;-55
2023/02/15 00:34:59;;;;;;;53.10;24.17;;;;;;;0.66;100.00;102911.81;2615385;36;20027;-56
2023/02/15 00:37:27;;;;;;;44.42;22.67;;;;;;;0.68;100.00;102907.38;2616204;36;20539;-56
2023/02/15 00:39:56;;;;;;;50.70;23.42;;;;;;;0.65;100.00;102910.06;2615893;36;20026;-53
2023/02/15 00:42:24;;;;;;;48.83;23.58;;;;;;;0.67;100.00;102910.03;2615448;31;20042;-52
2023/02/15 00:44:52;;;;;;;46.03;23.58;;;;;;;0.66;100.00;102895.91;2604591;36;20051;-53
2023/02/15 00:47:21;;;;;;;44.75;22.50;;;;;;;0.51;100.00;102896.13;2599406;31;20590;-55
2023/02/15 00:49:52;;;;;;;47.60;22.42;;;;;;;0.43;100.00;102890.06;2599542;36;20578;-54
2023/02/15 00:52:20;;;;;;;49.35;23.48;;;;;;;0.59;100.00;102883.66;2602480;36;20034;-52
2023/02/15 00:54:48;;;;;;;42.67;20.75;;;;;;;0.68;100.00;102887.94;2604549;36;20038;-57
2023/02/15 00:57:18;;;;;;;43.95;21.90;;;;;;;0.57;100.00;102882.78;2603707;36;20038;-56
2023/02/15 00:59:47;;;;;;;47.83;23.10;;;;;;;0.62;100.00;102883.59;2603661;36;20041;-53
2023/02/15 01:02:15;;;;;;;42.42;22.33;;;;;;;0.61;100.00;102880.97;2616379;36;20042;-55
2023/02/15 01:04:44;;;;;;;45.03;21.37;;;;;;;0.61;100.00;102880.97;2604199;36;20046;-58
2023/02/15 01:07:18;;;;;;;50.10;22.13;;;;;;;0.53;100.00;102878.44;2606867;31;20420;-53
2023/02/15 01:09:46;;;;;;;43.92;21.27;;;;;;;0.54;100.00;102876.66;2600943;31;22082;-53
2023/02/15 01:12:15;;;;;;;49.85;22.83;;;;;;;0.61;100.00;102876.53;2604213;36;20521;-54
2023/02/15 01:14:43;;;;;;;47.47;23.10;;;;;;;0.65;100.00;102872.97;2601287;36;20137;-57
2023/02/15 01:17:11;;;;;;;42.22;21.05;;;;;;;0.50;100.00;102873.16;2598697;36;20030;-54
2023/02/15 01:19:40;;;;;;;49.60;22.95;;;;;;;0.43;100.00;102871.53;2603055;36;20034;-56
2023/02/15 01:22:11;;;;;;;45.95;21.38;;;;;;;0.47;100.00;102873.22;2602487;31;20554;-54
2023/02/15 01:24:42;;;;;;;40.47;21.20;;;;;;;0.57;100.00;102872.19;2601374;31;20030;-56
2023/02/15 01:27:10;;;;;;;41.83;20.42;;;;;;;0.59;100.00;102870.41;2598091;31;20884;-58
2023/02/15 01:29:38;;;;;;;46.10;22.05;;;;;;;0.55;100.00;102858.09;2600702;36;20034;-56
2023/02/15 01:32:07;;;;;;;40.80;20.93;;;;;;;0.46;100.00;102861.75;2601008;36;20570;-58
2023/02/15 01:34:35;;;;;;;45.30;21.67;;;;;;;0.43;100.00;102868.88;2604670;36;20039;-53
2023/02/15 01:37:04;;;;;;;50.03;21.65;;;;;;;0.46;100.00;102866.19;2599997;36;20035;-55
2023/02/15 01:39:32;;;;;;;42.70;20.20;;;;;;;0.42;100.00;102859.16;2602714;36;20042;-58
2023/02/15 01:42:03;;;;;;;40.63;19.88;;;;;;;0.31;100.00;102852.25;2601429;36;20031;-53
2023/02/15 01:44:59;;;;;;;42.65;22.60;;;;;;;0.40;100.00;102845.03;2606445;36;20034;-57
2023/02/15 01:47:37;;;;;;;45.42;20.50;;;;;;;0.37;100.00;102840.69;2615733;31;20443;-53
2023/02/15 01:50:12;;;;;;;39.63;20.80;;;;;;;0.33;100.00;102845.13;2614773;36;20042;-54
2023/02/15 01:52:46;;;;;;;38.38;19.65;;;;;;;0.37;100.00;102834.50;2616598;36;20038;-55
2023/02/15 01:55:16;;;;;;;43.28;20.45;;;;;;;0.41;100.00;102834.41;2601678;36;20588;-54
2023/02/15 01:57:48;;;;;;;47.25;21.77;;;;;;;0.40;100.00;102835.34;2598219;36;20038;-55
2023/02/15 02:00:19;;;;;;;46.70;21.45;;;;;;;0.31;100.00;102841.66;2603764;36;20030;-57
2023/02/15 02:02:52;;;;;;;42.03;21.13;;;;;;;0.27;100.00;102839.94;2600622;36;20590;-56
2023/02/15 02:05:21;;;;;;;46.35;21.77;;;;;;;0.26;100.00;102826.72;2595583;36;20695;-55
2023/02/15 02:07:52;;;;;;;46.55;20.75;;;;;;;0.26;100.00;102830.22;2599834;36;20038;-53
2023/02/15 02:10:24;;;;;;;40.85;22.45;;;;;;;0.28;100.00;102836.38;2600693;31;20591;-59
2023/02/15 02:12:59;;;;;;;43.17;20.00;;;;;;;0.16;100.00;102839.19;2602519;36;20402;-55
2023/02/15 02:15:42;;;;;;;43.08;19.83;;;;;;;0.14;100.00;102827.75;2602778;31;20780;-57
2023/02/15 02:18:34;;;;;;;42.42;20.40;;;;;;;0.14;100.00;102822.44;2602323;36;20041;-55
2023/02/15 02:21:28;;;;;;;46.40;21.20;;;;;;;0.17;100.00;102819.75;2604427;36;20042;-58
2023/02/15 02:24:26;;;;;;;42.88;21.48;;;;;;;0.21;100.00;102820.56;2603974;36;20045;-51
2023/02/15 02:27:34;;;;;;;41.63;20.67;;;;;;;0.20;100.00;102817.06;2602911;31;20038;-56
2023/02/15 02:30:36;;;;;;;44.03;22.50;;;;;;;0.20;100.00;102818.84;2599792;36;20432;-53
2023/02/15 02:33:30;;;;;;;43.08;20.35;;;;;;;0.22;100.00;102807.34;2599912;31;20038;-53
2023/02/15 02:36:11;;;;;;;40.90;21.65;;;;;;;0.24;100.00;102802.03;2600747;36;20129;-54
2023/02/15 02:38:53;;;;;;;42.05;20.75;;;;;;;0.22;100.00;102802.06;2602144;36;20030;-54
2023/02/15 02:41:31;;;;;;;45.90;22.75;;;;;;;0.13;100.00;102792.47;2598881;36;21246;-55
2023/02/15 02:44:05;;;;;;;47.88;22.08;;;;;;;0.14;100.00;102794.19;2600129;36;20038;-56
2023/02/15 02:46:40;;;;;;;42.83;20.85;;;;;;;0.19;100.00;102799.41;2615639;36;20030;-54
2023/02/15 02:49:11;;;;;;;48.40;21.42;;;;;;;0.21;100.00;102792.34;2615631;31;20031;-58
2023/02/15 02:51:39;;;;;;;39.47;20.48;;;;;;;0.19;100.00;102780.88;2616152;36;20034;-55
2023/02/15 02:54:09;;;;;;;43.85;20.33;;;;;;;0.04;100.00;102781.13;2616035;36;20042;-55
2023/02/15 02:56:43;;;;;;;40.85;20.50;;;;;;;-0.04;100.00;102779.44;2615383;36;20045;-57
2023/02/15 02:59:15;;;;;;;42.88;21.45;;;;;;;0.09;100.00;102784.56;2615338;36;20056;-56
2023/02/15 03:01:47;;;;;;;42.00;20.50;;;;;;;0.09;100.00;102773.97;2616211;36;20431;-56
2023/02/15 03:04:21;;;;;;;44.92;22.67;;;;;;;0.12;100.00;102777.47;2615356;36;20034;-53
2023/02/15 03:06:55;;;;;;;43.95;21.25;;;;;;;0.13;100.00;102773.94;2615961;36;20053;-53
2023/02/15 03:09:41;;;;;;;45.20;21.73;;;;;;;0.10;100.00;102776.59;2615902;36;20038;-60
2023/02/15 03:12:11;;;;;;;47.25;22.00;;;;;;;0.08;100.00;102774.88;2615436;36;20031;-57
2023/02/15 03:14:40;;;;;;;46.17;22.33;;;;;;;0.00;100.00;102775.00;2615613;36;20038;-56
2023/02/15 03:17:10;;;;;;;40.83;20.02;;;;;;;-0.01;100.00;102771.44;2615391;36;20034;-57
2023/02/15 03:19:43;;;;;;;45.90;21.38;;;;;;;0.03;100.00;102769.66;2614962;36;20492;-55
2023/02/15 03:22:16;;;;;;;39.72;19.77;;;;;;;0.02;100.00;102767.91;2615949;36;20026;-50
2023/02/15 03:24:50;;;;;;;44.75;20.00;;;;;;;0.05;100.00;102759.03;2616214;36;20313;-59
2023/02/15 03:27:22;;;;;;;46.88;22.42;;;;;;;0.02;100.00;102753.78;2615835;36;20042;-58
2023/02/15 03:29:56;;;;;;;43.75;20.65;;;;;;;-0.02;100.00;102751.16;2615200;36;20585;-54
2023/02/15 03:32:27;;;;;;;46.38;21.15;;;;;;;0.01;100.00;102741.44;2615435;36;20042;-55
2023/02/15 03:34:58;;;;;;;46.85;21.30;;;;;;;0.02;100.00;102740.56;2615439;36;20030;-57
2023/02/15 03:37:30;;;;;;;41.30;20.23;;;;;;;0.06;100.00;102739.59;2616841;36;20555;-56
2023/02/15 03:41:09;;;;;;;49.17;21.00;;;;;;;0.01;100.00;102738.78;2616147;36;20035;-56
2023/02/15 03:43:03;;;;;;;46.97;21.70;;;;;;;0.02;100.00;102733.47;2616456;36;20539;-59
2023/02/15 03:45:34;;;;;;;44.78;21.58;;;;;;;-0.05;100.00;102732.69;2616498;31;20045;-55
2023/02/15 03:48:04;;;;;;;42.92;21.30;;;;;;;-0.06;100.00;102735.34;2616788;36;20114;-50
2023/02/15 03:53:22;;;;;;;40.63;20.83;;;;;;;-0.12;100.00;102735.44;2616715;36;20540;-55
2023/02/15 03:55:51;;;;;;;45.75;22.60;;;;;;;-0.13;100.00;102729.28;2616597;31;20170;-59
2023/02/15 04:03:47;;;;;;;42.70;21.70;;;;;;;-0.13;100.00;102723.97;2616275;36;20038;-52
2023/02/15 04:06:18;;;;;;;40.15;19.95;;;;;;;-0.13;100.00;102728.38;2617019;36;20457;-52
2023/02/15 04:11:27;;;;;;;43.47;20.95;;;;;;;-0.13;100.00;102737.22;2616301;36;20535;-54
2023/02/15 04:13:56;;;;;;;51.35;22.20;;;;;;;-0.14;100.00;102730.16;2616414;31;20027;-58
2023/02/15 04:16:22;;;;;;;39.72;19.92;;;;;;;-0.17;100.00;102729.34;2616526;36;20555;-55
2023/02/15 04:26:56;;;;;;;40.45;20.88;;;;;;;-0.34;100.00;102727.78;2615845;31;20061;-53
2023/02/15 04:29:25;;;;;;;39.27;18.17;;;;;;;-0.33;100.00;102720.72;2616682;36;20046;-56
2023/02/15 04:31:55;;;;;;;42.90;20.20;;;;;;;-0.36;100.00;102719.00;2616853;31;20452;-52
2023/02/15 04:34:23;;;;;;;42.38;20.38;;;;;;;-0.40;100.00;102717.28;2615917;36;20030;-52
2023/02/15 04:36:54;;;;;;;38.97;19.13;;;;;;;-0.32;100.00;102717.16;2616636;31;20061;-53
2023/02/15 04:39:22;;;;;;;39.78;20.00;;;;;;;-0.33;100.00;102712.78;2616242;36;20279;-58
2023/02/15 04:41:51;;;;;;;37.90;19.05;;;;;;;-0.34;100.00;102708.38;2615801;36;20038;-56
2023/02/15 04:44:25;;;;;;;41.75;20.08;;;;;;;-0.28;100.00;102713.59;2613592;36;20030;-55
2023/02/15 04:46:54;;;;;;;43.10;20.75;;;;;;;-0.23;100.00;102695.91;2605578;36;20038;-55
2023/02/15 04:49:22;;;;;;;40.15;20.25;;;;;;;-0.25;100.00;102702.97;2605307;36;20044;-58
2023/02/15 04:51:53;;;;;;;47.47;21.63;;;;;;;-0.25;100.00;102697.66;2604161;36;20038;-53
2023/02/15 04:54:22;;;;;;;43.85;21.23;;;;;;;-0.32;100.00;102693.34;2599502;36;20041;-55
2023/02/15 04:56:50;;;;;;;52.30;21.35;;;;;;;-0.26;100.00;102691.50;2603848;36;20034;-54
2023/02/15 04:59:18;;;;;;;53.40;22.80;;;;;;;-0.20;100.00;102690.56;2602524;36;20034;-53
2023/02/15 05:01:47;;;;;;;54.95;22.38;;;;;;;-0.15;100.00;102696.66;2600855;36;20458;-53
2023/02/15 05:04:15;;;;;;;48.70;22.13;;;;;;;-0.13;100.00;102697.53;2600582;31;20102;-57
2023/02/15 05:06:43;;;;;;;47.55;22.17;;;;;;;-0.18;100.00;102688.75;2599946;36;20558;-54
2023/02/15 05:09:16;;;;;;;51.10;21.52;;;;;;;-0.23;100.00;102686.19;2600998;36;20644;-57
2023/02/15 05:11:44;;;;;;;51.75;22.30;;;;;;;-0.21;100.00;102688.81;2604098;36;20041;-54
2023/02/15 05:14:12;;;;;;;45.42;22.05;;;;;;;-0.13;100.00;102692.22;2603492;36;20268;-58
2023/02/15 05:16:41;;;;;;;56.43;23.60;;;;;;;-0.14;100.00;102698.41;2599310;36;20041;-55
2023/02/15 05:19:09;;;;;;;44.20;19.83;;;;;;;-0.17;100.00;102698.44;2604789;36;20022;-54
2023/02/15 05:21:38;;;;;;;48.07;22.33;;;;;;;-0.14;100.00;102690.47;2601059;36;20061;-57
2023/02/15 05:28:19;;;;;;;46.60;22.00;;;;;;;-0.15;100.00;102691.34;2599536;36;20034;-56
2023/02/15 05:29:38;;;;;;;45.40;21.65;;;;;;;-0.10;100.00;102692.19;2605402;36;20045;-57
2023/02/15 05:32:07;;;;;;;44.03;20.57;;;;;;;-0.10;100.00;102684.25;2596113;36;20045;-55
2023/02/15 05:34:35;;;;;;;47.33;21.77;;;;;;;-0.16;100.00;102681.69;2599386;36;20295;-58
2023/02/15 05:37:04;;;;;;;44.47;21.90;;;;;;;-0.12;100.00;102679.84;2602901;36;20042;-56
2023/02/15 05:39:32;;;;;;;48.50;22.15;;;;;;;-0.14;100.00;102679.88;2598903;36;20054;-55
2023/02/15 05:42:03;;;;;;;45.65;22.48;;;;;;;-0.24;100.00;102678.25;2605696;31;20057;-58
2023/02/15 05:44:32;;;;;;;53.13;21.75;;;;;;;-0.29;100.00;102673.03;2599138;36;20042;-53
2023/02/15 05:47:02;;;;;;;43.13;21.80;;;;;;;-0.31;100.00;102681.88;2599354;36;20794;-57
2023/02/15 05:49:31;;;;;;;43.25;21.48;;;;;;;-0.32;100.00;102680.13;2601838;36;20042;-54
2023/02/15 05:51:59;;;;;;;42.17;20.23;;;;;;;-0.34;100.00;102681.94;2609723;36;20049;-54
2023/02/15 05:54:28;;;;;;;41.60;20.73;;;;;;;-0.30;100.00;102679.22;2603135;31;20030;-58
2023/02/15 05:57:03;;;;;;;42.67;20.77;;;;;;;-0.33;100.00;102688.97;2603452;36;20046;-53
2023/02/15 05:59:34;;;;;;;43.03;21.27;;;;;;;-0.38;100.00;102687.25;2600736;31;20041;-57
2023/02/15 06:02:02;;;;;;;42.10;21.05;;;;;;;-0.34;100.00;102681.94;2603050;36;20073;-54
2023/02/15 06:04:31;;;;;;;39.60;20.08;;;;;;;-0.31;100.00;102685.44;2604218;36;20029;-53
2023/02/15 06:06:59;;;;;;;44.30;21.27;;;;;;;-0.32;100.00;102688.06;2597964;36;20054;-56
2023/02/15 06:09:27;;;;;;;45.22;20.40;;;;;;;-0.36;100.00;102685.47;2601050;36;20069;-55
2023/02/15 06:11:56;;;;;;;45.90;20.92;;;;;;;-0.31;100.00;102688.06;2601706;36;20071;-52
2023/02/15 06:14:24;;;;;;;41.78;20.92;;;;;;;-0.26;100.00;102685.34;2602199;36;20354;-55
2023/02/15 06:16:55;;;;;;;47.30;22.40;;;;;;;-0.29;100.00;102682.75;2601547;36;20574;-53
2023/02/15 06:19:23;;;;;;;50.10;22.15;;;;;;;-0.26;100.00;102680.94;2602473;36;20423;-58
2023/02/15 06:21:52;;;;;;;50.83;23.73;;;;;;;-0.30;100.00;102673.91;2598184;36;20038;-53
2023/02/15 06:24:21;;;;;;;51.70;23.38;;;;;;;-0.30;100.00;102678.34;2596522;36;20141;-53
2023/02/15 06:26:49;;;;;;;46.35;20.55;;;;;;;-0.36;100.00;102674.88;2601105;36;20471;-56
2023/02/15 06:29:18;;;;;;;53.92;21.48;;;;;;;-0.33;100.00;102673.09;2599664;36;20034;-56
2023/02/15 06:31:49;;;;;;;46.25;22.13;;;;;;;-0.37;100.00;102666.97;2596686;36;20038;-55
2023/02/15 06:34:23;;;;;;;44.05;21.63;;;;;;;-0.32;100.00;102664.25;2617559;36;20038;-55
2023/02/15 06:36:51;;;;;;;48.65;22.80;;;;;;;-0.29;100.00;102662.44;2598205;36;20035;-55
2023/02/15 06:39:20;;;;;;;44.92;23.33;;;;;;;-0.21;100.00;102663.22;2605326;36;20045;-53
2023/02/15 06:41:48;;;;;;;51.78;24.23;;;;;;;-0.22;100.00;102661.47;2601410;36;20563;-55
2023/02/15 06:44:16;;;;;;;50.30;22.77;;;;;;;-0.17;100.00;102660.53;2600412;36;20039;-55
2023/02/15 06:46:45;;;;;;;49.40;23.70;;;;;;;-0.12;100.00;102659.53;2603289;36;20049;-55
2023/02/15 06:49:24;;;;;;;55.42;24.25;;;;;;;-0.11;100.00;102665.72;2602677;36;20777;-53
2023/02/15 06:51:53;;;;;;;57.13;25.85;;;;;;;-0.05;100.00;102669.16;2599182;36;20090;-50
2023/02/15 06:54:21;;;;;;;51.38;25.15;;;;;;;-0.07;100.00;102664.81;2602248;36;20057;-55
2023/02/15 06:56:52;;;;;;;53.55;24.80;;;;;;;-0.04;100.00;102670.03;2600992;36;20041;-56
2023/02/15 06:59:21;;;;;;;54.03;25.65;;;;;;;-0.02;100.00;102666.44;2603237;36;20069;-54
2023/02/15 07:01:49;;;;;;;57.38;25.50;;;;;;;-0.02;100.00;102666.44;2603425;36;20034;-56
2023/02/15 07:04:18;;;;;;;60.75;26.40;;;;;;;0.08;100.00;102672.50;2602894;31;20034;-56
2023/02/15 07:06:49;;;;;;;64.60;27.77;;;;;;;0.15;100.00;102654.75;2600975;36;20043;-55
2023/02/15 07:09:17;;;;;;;60.88;26.30;;;;;;;0.22;100.00;102663.44;2600371;36;20046;-53
2023/02/15 07:14:30;;;;;;;61.53;26.90;;;;;;;0.32;100.00;102660.66;2599410;36;20085;-52
2023/02/15 07:17:01;;;;;;;55.58;26.00;;;;;;;0.30;100.00;102661.56;2605176;54;20050;-55
2023/02/15 07:19:30;;;;;;;62.13;27.15;;;;;;;0.31;100.00;102660.66;2604482;36;20439;-55
2023/02/15 07:22:04;;;;;;;53.13;25.13;;;;;;;0.32;100.00;102658.00;2601711;36;20041;-56
2023/02/15 07:24:33;;;;;;;67.22;27.38;;;;;;;0.34;100.00;102663.28;2603424;36;20276;-59
2023/02/15 07:27:04;;;;;;;68.45;29.75;;;;;;;0.35;100.00;102657.06;2604928;36;20528;-57
2023/02/15 07:29:35;;;;;;;69.43;28.55;;;;;;;0.37;100.00;102652.63;2605124;36;20069;-58
2023/02/15 07:32:03;;;;;;;58.40;26.33;;;;;;;0.40;100.00;102654.31;2604800;31;20624;-56
2023/02/15 07:34:32;;;;;;;60.05;29.10;;;;;;;0.45;100.00;102660.44;2604196;36;20034;-56
2023/02/15 08:08:37;;;;;;;62.15;29.85;;;;;;;1.22;100.00;102632.44;2604206;54;20072;-58
2023/02/15 08:26:06;;;;;;;85.15;37.30;;;;;;;2.18;100.00;102606.38;2623099;36;20608;-59
2023/02/15 09:01:44;;;;;;;103.10;39.40;;;;;;;4.15;100.00;102579.31;2608244;36;20138;-57
2023/02/15 09:06:58;;;;;;;87.50;38.03;;;;;;;4.47;100.00;102571.09;2653159;36;20070;-57
2023/02/15 09:17:33;;;;;;;74.55;33.47;;;;;;;4.89;100.00;102563.34;2606235;31;20253;-57
2023/02/15 09:20:02;;;;;;;68.03;32.67;;;;;;;5.06;100.00;102562.72;2599210;36;20506;-56
2023/02/15 09:22:31;;;;;;;67.17;32.77;;;;;;;5.21;100.00;102561.25;2601064;36;20534;-54
2023/02/15 09:24:59;;;;;;;59.25;28.20;;;;;;;5.44;100.00;102564.81;2604895;36;20038;-55
2023/02/15 09:27:27;;;;;;;61.33;30.17;;;;;;;5.53;100.00;102555.56;2598080;36;20049;-55
2023/02/15 09:29:56;;;;;;;54.27;26.50;;;;;;;5.69;100.00;102550.47;2594092;36;20046;-56
2023/02/15 09:32:24;;;;;;;52.23;27.23;;;;;;;5.73;100.00;102549.41;2598060;36;20154;-55
2023/02/15 09:34:55;;;;;;;52.33;27.10;;;;;;;5.88;100.00;102550.59;2596653;36;20448;-53
2023/02/15 09:37:23;;;;;;;47.38;25.00;;;;;;;6.08;100.00;102553.31;2597685;36;20101;-53
2023/02/15 09:39:52;;;;;;;49.03;24.83;;;;;;;6.23;100.00;102553.59;2604810;36;20042;-57
2023/02/15 09:42:52;;;;;;;48.80;25.60;;;;;;;6.25;100.00;102552.56;2602141;36;20046;-57
2023/02/15 09:45:30;;;;;;;47.10;23.48;;;;;;;6.28;100.00;102546.25;2609757;36;20068;-55
2023/02/15 09:48:13;;;;;;;46.50;23.52;;;;;;;6.39;100.00;102543.09;2616053;36;20037;-57
2023/02/15 09:50:57;;;;;;;47.85;23.17;;;;;;;6.61;100.00;102549.25;2615590;36;20022;-57
2023/02/15 09:53:39;;;;;;;51.22;23.23;;;;;;;6.62;100.00;102553.63;2616541;36;20118;-57
2023/02/15 09:56:12;;;;;;;42.80;23.30;;;;;;;6.40;100.00;102542.16;2616699;31;20077;-57
2023/02/15 09:58:51;;;;;;;46.78;22.20;;;;;;;6.51;100.00;102549.69;2616061;36;20129;-57
2023/02/15 10:01:26;;;;;;;49.65;23.92;;;;;;;6.57;100.00;102547.63;2616669;36;20049;-59
2023/02/15 10:04:15;;;;;;;46.03;23.55;;;;;;;6.71;100.00;102546.13;2616049;36;20038;-57
2023/02/15 10:07:01;;;;;;;41.97;22.33;;;;;;;6.76;100.00;102541.47;2615794;36;20030;-57
2023/02/15 10:09:42;;;;;;;47.75;23.02;;;;;;;6.75;100.00;102548.59;2616216;36;20047;-58
2023/02/15 10:12:35;;;;;;;39.20;21.95;;;;;;;6.74;100.00;102546.00;2615390;36;20049;-57
2023/02/15 10:15:21;;;;;;;42.05;23.25;;;;;;;6.78;100.00;102555.63;2616259;36;20034;-57
2023/02/15 10:18:16;;;;;;;44.38;23.40;;;;;;;6.77;100.00;102551.22;2615980;36;20065;-57
2023/02/15 10:20:58;;;;;;;44.90;24.10;;;;;;;6.79;100.00;102547.53;2615653;36;20034;-57
2023/02/15 10:23:56;;;;;;;42.13;21.63;;;;;;;7.02;100.00;102556.31;2616184;36;20673;-58
2023/02/15 10:26:32;;;;;;;43.88;22.55;;;;;;;7.26;100.00;102559.66;2615138;36;20050;-58
2023/02/15 10:29:07;;;;;;;46.47;23.15;;;;;;;7.32;100.00;102563.84;2616121;36;20033;-58
2023/02/15 10:31:46;;;;;;;42.78;22.38;;;;;;;7.55;100.00;102554.69;2616110;36;20058;-57
2023/02/15 10:34:19;;;;;;;42.83;22.60;;;;;;;7.47;100.00;102556.91;2616280;31;20039;-57
2023/02/15 10:37:05;;;;;;;47.25;23.35;;;;;;;7.51;100.00;102564.69;2616029;36;20137;-58
2023/02/15 10:39:47;;;;;;;43.17;23.45;;;;;;;7.58;100.00;102554.53;2616639;36;20443;-58
2023/02/15 10:42:27;;;;;;;45.83;21.83;;;;;;;7.52;100.00;102560.19;2616398;31;20039;-58
2023/02/15 10:45:08;;;;;;;45.08;23.52;;;;;;;7.88;100.00;102568.25;2615991;36;20130;-58
2023/02/15 10:47:57;;;;;;;41.85;23.08;;;;;;;7.99;100.00;102553.44;2615763;36;20026;-58
2023/02/15 10:50:40;;;;;;;40.72;22.58;;;;;;;8.19;100.00;102561.34;2614107;36;20029;-58
2023/02/15 10:53:31;;;;;;;44.50;22.70;;;;;;;8.10;100.00;102563.59;2615700;36;20054;-58
2023/02/15 10:56:37;;;;;;;41.80;22.83;;;;;;;8.14;100.00;102555.34;2614808;31;20030;-58
2023/02/15 11:02:23;;;;;;;38.50;21.08;;;;;;;8.28;100.00;102541.22;2615100;36;21241;-57
2023/02/15 11:16:59;;;;;;;40.13;20.20;;;;;;;9.01;100.00;102530.22;2614737;36;20039;-58
2023/02/15 11:25:04;;;;;;;38.10;20.88;;;;;;;9.31;100.00;102510.63;2614526;31;20054;-58
2023/02/15 11:30:23;;;;;;;42.33;21.17;;;;;;;9.26;100.00;102500.16;2615325;36;20435;-58
2023/02/15 11:32:58;;;;;;;39.85;22.23;;;;;;;9.51;100.00;102501.44;2615609;31;20038;-58
2023/02/15 11:35:47;;;;;;;39.15;20.90;;;;;;;9.56;100.00;102498.47;2616247;36;20050;-58
2023/02/15 11:41:13;;;;;;;42.17;22.10;;;;;;;9.43;100.00;102488.41;2615367;31;20411;-58
2023/02/15 11:43:51;;;;;;;41.47;20.33;;;;;;;9.57;100.00;102486.75;2613213;36;20133;-56
2023/02/15 11:49:02;;;;;;;40.42;21.38;;;;;;;9.76;100.00;102481.16;2605499;36;20423;-53
2023/02/15 11:51:37;;;;;;;38.77;20.07;;;;;;;9.73;100.00;102467.91;2602279;36;20031;-55
2023/02/15 11:54:07;;;;;;;39.03;20.42;;;;;;;10.06;100.00;102466.84;2602127;36;20073;-56
2023/02/15 11:59:51;;;;;;;35.63;19.60;;;;;;;9.84;100.00;102456.53;2659486;31;20474;-56
2023/02/15 12:02:22;;;;;;;41.55;20.50;;;;;;;10.07;100.00;102445.22;2604574;31;20522;-57
2023/02/15 12:04:54;;;;;;;39.63;20.85;;;;;;;9.99;100.00;102442.13;2601123;36;20057;-56
2023/02/15 12:07:28;;;;;;;36.45;20.17;;;;;;;10.21;100.00;102443.53;2601274;36;20076;-56
2023/02/15 12:10:04;;;;;;;42.35;20.60;;;;;;;10.34;100.00;102439.13;2605348;36;20258;-56
2023/02/15 12:12:34;;;;;;;38.50;18.77;;;;;;;10.62;100.00;102432.00;2599255;36;20049;-59
2023/02/15 12:15:03;;;;;;;39.30;21.48;;;;;;;10.84;100.00;102429.66;2600753;36;20652;-56
2023/02/15 12:17:35;;;;;;;40.58;20.60;;;;;;;10.75;100.00;102424.88;2601088;36;20045;-57
2023/02/15 12:20:07;;;;;;;39.85;21.10;;;;;;;10.92;100.00;102422.91;2600001;31;20601;-56
2023/02/15 12:22:39;;;;;;;38.42;20.42;;;;;;;10.85;100.00;102422.44;2601106;36;20031;-55
2023/02/15 12:25:24;;;;;;;36.03;19.10;;;;;;;10.66;100.00;102429.03;2604822;36;20042;-57
2023/02/15 12:27:53;;;;;;;38.35;21.20;;;;;;;10.93;100.00;102430.03;2599678;36;20034;-57
2023/02/15 12:30:28;;;;;;;39.88;21.90;;;;;;;10.69;100.00;102407.28;2599551;31;20041;-54
2023/02/15 12:33:01;;;;;;;41.03;20.08;;;;;;;10.76;100.00;102396.09;2601662;36;20467;-56
2023/02/15 12:35:33;;;;;;;37.05;22.35;;;;;;;10.98;100.00;102406.34;2600921;36;20034;-57
2023/02/15 12:38:07;;;;;;;47.67;21.92;;;;;;;11.10;100.00;102412.75;2600598;36;20081;-56
2023/02/15 12:40:36;;;;;;;40.47;19.92;;;;;;;10.92;100.00;102412.13;2605641;31;20038;-57
2023/02/15 12:43:08;;;;;;;;;;;;;;;11.05;100.00;102413.06;2605731;36;20129;-58
2023/02/15 12:45:39;;;;;;;41.33;20.88;;;;;;;11.21;100.00;102403.00;2598884;36;20327;-55
2023/02/15 12:48:19;;;;;;;35.70;20.45;;;;;;;11.25;100.00;102406.34;2600985;36;20043;-56
2023/02/15 12:50:51;;;;;;;39.85;20.83;;;;;;;11.44;100.00;102406.00;2603032;36;20042;-57
2023/02/15 12:53:25;;;;;;;40.10;21.52;;;;;;;11.52;100.00;102411.72;2598674;36;20069;-56
2023/02/15 12:55:56;;;;;;;41.80;22.95;;;;;;;11.83;100.00;102397.97;2600463;31;20536;-55
2023/02/15 12:58:27;;;;;;;35.10;20.13;;;;;;;11.92;100.00;102398.19;2604199;36;20038;-57
2023/02/15 13:01:11;;;;;;;39.60;20.63;;;;;;;11.91;100.00;102382.97;2598895;36;20046;-57
2023/02/15 13:03:42;;;;;;;40.80;22.27;;;;;;;11.87;100.00;102383.28;2605710;31;20037;-57
2023/02/15 13:06:11;;;;;;;37.85;20.90;;;;;;;12.07;100.00;102373.81;2599570;36;20045;-58
2023/02/15 13:08:50;;;;;;;39.17;21.05;;;;;;;12.29;100.00;102366.88;2601352;31;20042;-57
2023/02/15 13:11:24;;;;;;;44.17;21.90;;;;;;;12.48;100.00;102371.81;2600722;31;20610;-55
2023/02/15 13:13:56;;;;;;;36.45;20.27;;;;;;;12.41;100.00;102366.88;2602636;36;20038;-56
2023/02/15 13:16:32;;;;;;;43.92;22.02;;;;;;;12.17;100.00;102374.03;2599091;36;20062;-56
2023/02/15 13:19:06;;;;;;;41.20;21.00;;;;;;;12.12;100.00;102368.06;2604267;36;20042;-57
2023/02/15 13:21:39;;;;;;;42.33;21.45;;;;;;;12.00;100.00;102367.13;2618778;36;20041;-56
2023/02/15 13:24:20;;;;;;;38.10;20.15;;;;;;;11.97;100.00;102365.53;2598600;36;20045;-57
2023/02/15 13:26:49;;;;;;;39.25;19.85;;;;;;;11.78;100.00;102368.63;2602888;36;20043;-57
2023/02/15 13:29:24;;;;;;;45.75;22.08;;;;;;;11.64;100.00;102360.59;2601287;36;20042;-57
2023/02/15 13:31:53;;;;;;;36.33;20.58;;;;;;;11.62;100.00;102359.88;2601581;36;20034;-59
2023/02/15 13:34:26;;;;;;;41.95;21.10;;;;;;;11.74;100.00;102367.09;2598920;36;20038;-57
2023/02/15 13:37:03;;;;;;;40.28;22.25;;;;;;;11.79;100.00;102370.31;2601609;36;20038;-59
2023/02/15 13:39:42;;;;;;;43.15;22.50;;;;;;;11.50;100.00;102365.13;2606043;36;20041;-57
2023/02/15 13:42:23;;;;;;;47.95;22.30;;;;;;;11.54;100.00;102361.25;2604795;36;20042;-56
2023/02/15 13:45:11;;;;;;;42.00;21.35;;;;;;;11.67;100.00;102355.00;2605061;31;20034;-56
2023/02/15 13:47:49;;;;;;;38.63;20.92;;;;;;;11.80;100.00;102345.06;2603159;36;20054;-58
2023/02/15 13:50:28;;;;;;;39.33;21.48;;;;;;;11.71;100.00;102340.34;2602332;31;20046;-57
2023/02/15 13:53:05;;;;;;;39.90;20.83;;;;;;;11.66;100.00;102331.69;2600706;36;20789;-60
2023/02/15 13:55:41;;;;;;;42.20;21.67;;;;;;;11.80;100.00;102344.22;2606893;36;20169;-59
2023/02/15 13:58:27;;;;;;;38.40;21.50;;;;;;;11.55;100.00;102346.78;2601564;36;20046;-56
2023/02/15 14:01:08;;;;;;;38.08;21.17;;;;;;;11.71;100.00;102348.44;2603670;36;20042;-56